createdAt,value
2018-03-11T00:00:54.168Z,16.80
2018-03-11T00:06:58.670Z,18.17
2018-03-11T00:13:04.154Z,18.07
2018-03-11T00:19:08.790Z,17.77
2018-03-11T00:25:13.289Z,18.17
2018-03-11T00:31:17.919Z,18.90
2018-03-11T00:37:22.477Z,17.30
2018-03-11T00:43:27.869Z,17.47
2018-03-11T00:49:32.367Z,17.23
2018-03-11T00:55:37.650Z,17.90
2018-03-11T01:01:42.134Z,19.07
2018-03-11T01:07:47.661Z,18.03
2018-03-11T01:13:52.309Z,20.23
2018-03-11T01:19:57.601Z,21.03
2018-03-11T01:26:02.096Z,20.03
2018-03-11T01:32:07.391Z,20.20
2018-03-11T01:38:12.906Z,19.57
2018-03-11T01:44:17.482Z,17.50
2018-03-11T01:50:22.229Z,18.60
2018-03-11T01:56:27.505Z,19.00
2018-03-11T02:02:31.997Z,19.00
2018-03-11T02:08:36.931Z,21.90
2018-03-11T02:14:41.439Z,21.13
2018-03-11T02:20:46.567Z,21.13
2018-03-11T02:26:52.575Z,21.00
2018-03-11T02:32:57.324Z,20.70
2018-03-11T02:39:01.847Z,21.60
2018-03-11T02:45:06.422Z,19.60
2018-03-11T02:51:11.039Z,19.10
2018-03-11T02:57:15.606Z,20.40
2018-03-11T03:03:20.886Z,19.50
2018-03-11T03:09:25.591Z,19.60
2018-03-11T03:15:30.168Z,18.67
2018-03-11T03:21:34.671Z,19.57
2018-03-11T03:27:39.231Z,19.50
2018-03-11T03:33:43.802Z,21.27
2018-03-11T03:39:48.661Z,17.43
2018-03-11T03:45:53.399Z,18.70
2018-03-11T03:51:57.884Z,19.00
2018-03-11T03:58:02.384Z,20.17
2018-03-11T04:04:06.960Z,19.70
2018-03-11T04:10:11.475Z,20.40
2018-03-11T04:16:17.044Z,22.20
2018-03-11T04:22:21.964Z,20.80
2018-03-11T04:28:26.475Z,20.10
2018-03-11T04:34:31.197Z,20.33
2018-03-11T04:40:36.513Z,20.63
2018-03-11T04:46:41.072Z,20.73
2018-03-11T04:52:45.764Z,21.50
2018-03-11T04:58:51.198Z,21.23
2018-03-11T05:04:55.739Z,23.00
2018-03-11T05:11:00.326Z,20.80
2018-03-11T05:17:04.949Z,22.47
2018-03-11T05:23:09.516Z,23.23
2018-03-11T05:29:14.119Z,24.00
2018-03-11T05:35:19.123Z,24.10
2018-03-11T05:41:23.960Z,23.90
2018-03-11T05:47:28.715Z,23.47
2018-03-11T05:53:33.210Z,24.23
2018-03-11T05:59:38.664Z,23.57
2018-03-11T06:05:43.214Z,25.00
2018-03-11T06:11:47.772Z,23.73
2018-03-11T06:17:52.640Z,24.80
2018-03-11T06:23:57.197Z,24.97
2018-03-11T06:30:01.698Z,24.27
2018-03-11T06:36:06.190Z,23.83
2018-03-11T06:42:10.662Z,23.13
2018-03-11T06:48:16.187Z,22.70
2018-03-11T06:54:20.771Z,23.93
2018-03-11T07:00:25.320Z,21.00
2018-03-11T07:06:29.858Z,23.30
2018-03-11T07:12:34.365Z,20.87
2018-03-11T07:18:38.831Z,20.97
2018-03-11T07:24:44.128Z,19.73
2018-03-11T07:30:48.723Z,19.17
2018-03-11T07:36:53.269Z,18.87
2018-03-11T07:42:57.770Z,20.47
2018-03-11T07:49:02.254Z,21.70
2018-03-11T07:55:06.745Z,18.77
2018-03-11T08:01:11.315Z,19.90
2018-03-11T08:07:15.991Z,19.53
2018-03-11T08:13:22.306Z,20.80
2018-03-11T08:19:26.836Z,20.23
2018-03-11T08:25:31.415Z,18.23
2018-03-11T08:31:35.955Z,17.90
2018-03-11T08:37:41.337Z,18.63
2018-03-11T08:43:47.154Z,17.40
2018-03-11T08:49:51.747Z,19.73
2018-03-11T08:55:56.999Z,18.13
2018-03-11T09:02:01.503Z,18.07
2018-03-11T09:08:06.001Z,18.30
2018-03-11T09:14:10.491Z,15.97
2018-03-11T09:20:15.764Z,18.43
2018-03-11T09:26:21.631Z,19.30
2018-03-11T09:32:26.944Z,16.10
2018-03-11T09:38:31.419Z,16.07
2018-03-11T09:44:35.988Z,14.53
2018-03-11T09:50:40.482Z,14.60
2018-03-11T09:56:44.985Z,14.33
2018-03-11T10:02:50.227Z,20.27
2018-03-11T10:08:54.783Z,25.67
2018-03-11T10:15:00.051Z,19.07
2018-03-11T10:21:04.618Z,14.33
2018-03-11T10:27:09.201Z,15.33
2018-03-11T10:33:15.023Z,12.43
2018-03-11T10:39:19.666Z,10.70
2018-03-11T10:45:24.357Z,11.80
2018-03-11T10:51:28.842Z,9.90
2018-03-11T10:57:34.187Z,10.53
2018-03-11T11:03:38.854Z,10.10
2018-03-11T11:09:43.376Z,10.27
2018-03-11T11:15:47.971Z,9.73
2018-03-11T11:21:52.719Z,10.47
2018-03-11T11:27:57.246Z,9.60
2018-03-11T11:34:01.885Z,9.43
2018-03-11T11:40:06.545Z,8.70
2018-03-11T11:46:11.928Z,9.50
2018-03-11T11:52:16.492Z,9.23
2018-03-11T11:58:22.055Z,10.73
2018-03-11T12:04:26.569Z,11.63
2018-03-11T12:10:31.205Z,11.10
2018-03-11T12:16:35.695Z,9.90
2018-03-11T12:22:40.238Z,10.07
2018-03-11T12:28:44.684Z,9.10
2018-03-11T12:34:49.367Z,9.10
2018-03-11T12:40:54.647Z,8.77
2018-03-11T12:46:59.151Z,9.30
2018-03-11T12:53:03.657Z,9.30
2018-03-11T12:59:08.130Z,9.43
2018-03-11T13:05:13.411Z,9.43
2018-03-11T13:11:19.472Z,9.83
2018-03-11T13:17:24.273Z,9.77
2018-03-11T13:23:28.806Z,9.63
2018-03-11T13:29:33.331Z,9.40
2018-03-11T13:35:37.971Z,9.63
2018-03-11T13:41:42.751Z,9.47
2018-03-11T13:47:47.698Z,9.73
2018-03-11T13:53:53.868Z,9.40
2018-03-11T13:59:58.471Z,8.40
2018-03-11T14:06:03.099Z,9.13
2018-03-11T14:12:08.431Z,8.80
2018-03-11T14:18:12.893Z,7.83
2018-03-11T14:24:17.366Z,7.10
2018-03-11T14:30:21.958Z,7.07
2018-03-11T14:36:27.250Z,11.10
2018-03-11T14:42:31.731Z,8.17
2018-03-11T14:48:36.210Z,17.20
2018-03-11T14:54:40.875Z,7.17
2018-03-11T15:00:45.422Z,7.93
2018-03-11T15:06:50.199Z,8.80
2018-03-11T15:12:54.828Z,7.63
2018-03-11T15:18:59.301Z,11.80
2018-03-11T15:25:04.538Z,8.30
2018-03-11T15:31:09.118Z,11.03
2018-03-11T15:37:13.616Z,7.20
2018-03-11T15:43:19.750Z,8.63
2018-03-11T15:49:24.530Z,7.83
2018-03-11T15:55:29.019Z,7.03
2018-03-11T16:01:34.416Z,7.30
2018-03-11T16:07:39.805Z,7.10
2018-03-11T16:13:45.104Z,5.87
2018-03-11T16:19:50.594Z,6.83
2018-03-11T16:25:55.141Z,5.87
2018-03-11T16:31:59.618Z,4.80
2018-03-11T16:38:04.110Z,5.30
2018-03-11T16:44:08.569Z,4.17
2018-03-11T16:50:13.038Z,3.60
2018-03-11T16:56:18.010Z,4.00
2018-03-11T17:02:22.943Z,3.60
2018-03-11T17:08:27.419Z,3.23
2018-03-11T17:14:32.698Z,4.10
2018-03-11T17:20:37.404Z,2.90
2018-03-11T17:26:42.774Z,3.23
2018-03-11T17:32:47.350Z,4.60
2018-03-11T17:38:51.887Z,7.03
2018-03-11T17:44:57.186Z,7.07
2018-03-11T17:51:01.583Z,8.20
2018-03-11T17:57:06.239Z,7.70
2018-03-11T18:03:10.767Z,7.17
2018-03-11T18:09:15.388Z,6.93
2018-03-11T18:15:20.912Z,4.80
2018-03-11T18:21:26.182Z,5.03
2018-03-11T18:27:30.678Z,4.40
2018-03-11T18:33:35.114Z,3.67
2018-03-11T18:39:39.574Z,3.90
2018-03-11T18:45:44.042Z,2.70
2018-03-11T18:51:50.124Z,2.50
2018-03-11T18:57:55.376Z,2.50
2018-03-11T19:03:59.888Z,2.30
2018-03-11T19:10:04.444Z,2.80
2018-03-11T19:16:08.962Z,2.20
2018-03-11T19:22:13.456Z,2.10
2018-03-11T19:28:18.899Z,2.10
2018-03-11T19:34:23.595Z,1.90
2018-03-11T19:40:28.069Z,2.57
2018-03-11T19:46:33.330Z,2.50
2018-03-11T19:52:37.810Z,2.80
2018-03-11T19:58:42.294Z,2.67
2018-03-11T20:04:47.218Z,2.87
2018-03-11T20:10:52.169Z,2.60
2018-03-11T20:16:56.645Z,2.50
2018-03-11T20:23:01.109Z,2.23
2018-03-11T20:29:05.680Z,2.33
2018-03-11T20:35:10.198Z,6.40
2018-03-11T20:41:15.809Z,6.10
2018-03-11T20:47:21.725Z,5.90
2018-03-11T20:53:27.005Z,4.93
2018-03-11T20:59:32.245Z,3.70
2018-03-11T21:05:36.761Z,4.20
2018-03-11T21:11:41.238Z,3.93
2018-03-11T21:17:47.707Z,4.77
2018-03-11T21:23:52.347Z,6.97
2018-03-11T21:29:56.858Z,7.20
2018-03-11T21:36:02.170Z,7.30
2018-03-11T21:42:06.647Z,7.23
2018-03-11T21:48:11.139Z,6.37
2018-03-11T21:54:15.846Z,6.90
2018-03-11T22:00:21.064Z,5.90
2018-03-11T22:06:25.667Z,6.67
2018-03-11T22:12:30.953Z,6.80
2018-03-11T22:18:35.532Z,6.20
2018-03-11T22:24:39.997Z,7.80
2018-03-11T22:30:44.487Z,7.10
2018-03-11T22:36:49.873Z,6.77
2018-03-11T22:42:54.429Z,5.30
2018-03-11T22:48:58.888Z,7.27
2018-03-11T22:55:04.187Z,6.63
2018-03-11T23:01:08.727Z,8.40
2018-03-11T23:07:13.207Z,10.10
2018-03-11T23:13:18.993Z,11.87
2018-03-11T23:19:23.607Z,10.23
2018-03-11T23:25:29.541Z,9.33
2018-03-11T23:31:33.954Z,9.53
2018-03-11T23:37:38.357Z,7.40
2018-03-11T23:43:43.726Z,8.10
2018-03-11T23:49:48.439Z,6.93
2018-03-11T23:55:52.909Z,9.70
